createdAt,value
2017-11-14T01:25:44.172Z,0.00
2017-11-14T01:26:53.656Z,0.00
2017-11-14T01:29:09.691Z,0.00
2017-11-14T01:30:18.325Z,0.00
2017-11-14T01:31:26.771Z,0.00
2017-11-14T01:32:35.464Z,0.00
2017-11-14T01:33:43.769Z,0.00
2017-11-14T01:34:52.253Z,0.00
2017-11-14T01:36:01.044Z,0.00
2017-11-14T01:37:09.286Z,0.00
2017-11-14T01:38:17.795Z,0.00
2017-11-14T01:39:26.313Z,0.00
2017-11-14T01:40:34.909Z,0.00
2017-11-14T01:41:43.512Z,0.00
2017-11-14T01:42:52.860Z,0.00
2017-11-14T01:44:00.436Z,0.00
2017-11-14T01:45:08.884Z,0.00
2017-11-14T01:46:17.455Z,0.00
2017-11-14T01:47:25.947Z,0.00
2017-11-14T01:48:34.554Z,0.00
2017-11-14T01:49:42.966Z,0.00
2017-11-14T01:50:51.566Z,0.00
2017-11-14T01:52:00.137Z,0.00
2017-11-14T01:53:08.523Z,0.00
2017-11-14T01:54:17.089Z,0.00
2017-11-14T01:55:25.595Z,0.00
2017-11-14T01:56:34.124Z,0.00
2017-11-14T01:57:42.716Z,0.00
2017-11-14T01:58:51.138Z,0.00
2017-11-14T01:59:59.658Z,0.00
2017-11-14T02:01:08.180Z,0.00
2017-11-14T02:02:16.725Z,0.00
2017-11-14T02:03:25.252Z,0.00
2017-11-14T02:04:33.849Z,0.00
2017-11-14T02:05:42.358Z,0.00
2017-11-14T02:06:50.878Z,0.00
2017-11-14T02:07:59.378Z,0.00
2017-11-14T02:09:07.879Z,0.00
2017-11-14T02:10:16.386Z,0.00
2017-11-14T02:11:24.994Z,0.00
2017-11-14T02:12:33.678Z,0.00
2017-11-14T02:13:42.003Z,0.00
2017-11-14T02:14:50.509Z,0.00
2017-11-14T02:15:59.093Z,0.00
2017-11-14T02:17:07.555Z,0.00
2017-11-14T02:18:16.140Z,0.00
2017-11-14T02:19:24.640Z,0.00
2017-11-14T02:20:33.142Z,0.00
2017-11-14T02:21:41.758Z,0.00
2017-11-14T02:22:50.263Z,0.00
2017-11-14T02:23:59.077Z,0.00
2017-11-14T02:25:07.253Z,0.00
2017-11-14T02:26:15.750Z,0.00
2017-11-14T02:27:24.405Z,0.00
2017-11-14T02:28:32.808Z,0.00
2017-11-14T02:29:41.351Z,0.00
2017-11-14T02:30:49.900Z,0.00
2017-11-14T02:31:58.515Z,0.00
2017-11-14T02:33:07.032Z,0.00
2017-11-14T02:34:15.536Z,0.00
2017-11-14T02:35:24.039Z,0.00
2017-11-14T02:36:32.527Z,0.00
2017-11-14T02:37:41.080Z,0.00
2017-11-14T02:38:49.586Z,0.00
2017-11-14T02:39:58.174Z,0.00
2017-11-14T02:41:06.642Z,0.00
2017-11-14T02:42:15.267Z,0.00
2017-11-14T02:43:23.712Z,0.00
2017-11-14T02:44:32.300Z,0.00
2017-11-14T02:45:40.804Z,0.00
2017-11-14T02:46:49.312Z,0.00
2017-11-14T02:47:57.851Z,0.00
2017-11-14T02:49:06.424Z,0.00
2017-11-14T02:50:14.929Z,0.00
2017-11-14T02:51:23.432Z,0.00
2017-11-14T02:52:31.960Z,0.00
2017-11-14T02:53:40.565Z,0.00
2017-11-14T02:54:48.985Z,0.00
2017-11-14T02:55:57.561Z,0.00
2017-11-14T02:57:06.034Z,0.00
2017-11-14T02:58:14.597Z,0.00
2017-11-14T02:59:24.106Z,0.00
2017-11-14T03:00:31.697Z,0.00
2017-11-14T03:01:40.159Z,0.00
2017-11-14T03:02:48.841Z,0.00
2017-11-14T03:03:57.349Z,0.00
2017-11-14T03:05:05.892Z,0.00
2017-11-14T03:06:14.832Z,0.00
2017-11-14T06:43:12.147Z,376.00
2017-11-14T07:26:35.331Z,1776.00
2017-11-14T07:27:43.936Z,1844.00
2017-11-14T07:28:52.460Z,1908.00
2017-11-14T07:30:01.644Z,2056.00
2017-11-14T07:31:09.530Z,2224.00
2017-11-14T07:32:17.963Z,2340.00
2017-11-14T07:33:26.471Z,2616.00
2017-11-14T07:34:35.008Z,2884.00
2017-11-14T07:35:43.540Z,2768.00
2017-11-14T07:36:52.037Z,2832.00
2017-11-14T07:38:00.596Z,3000.00
2017-11-14T07:39:09.108Z,3116.00
2017-11-14T07:40:17.653Z,3300.00
2017-11-14T07:41:27.317Z,3484.00
2017-11-14T07:42:34.692Z,3500.00
2017-11-14T07:43:43.232Z,3656.00
2017-11-14T07:44:52.859Z,3580.00
2017-11-14T07:46:00.298Z,3988.00
2017-11-14T07:47:08.851Z,3820.00
2017-11-14T07:48:17.387Z,3768.00
2017-11-14T07:49:26.046Z,3636.00
2017-11-14T07:50:34.489Z,3912.00
2017-11-14T07:51:43.080Z,4180.00
2017-11-14T07:52:51.587Z,4596.00
2017-11-14T07:54:00.098Z,4740.00
2017-11-14T07:55:08.667Z,4700.00
2017-11-14T07:56:17.208Z,4692.00
2017-11-14T07:57:25.826Z,4920.00
2017-11-14T07:58:34.333Z,4988.00
2017-11-14T07:59:42.834Z,4712.00
2017-11-14T08:00:52.483Z,4904.00
2017-11-14T08:01:59.913Z,5064.00
2017-11-14T08:03:08.635Z,4960.00
2017-11-14T08:04:17.062Z,5020.00
2017-11-14T08:05:25.686Z,5528.00
2017-11-14T08:06:34.137Z,5492.00
2017-11-14T08:07:42.694Z,5488.00
2017-11-14T08:08:51.243Z,5676.00
2017-11-14T08:09:59.907Z,5836.00
2017-11-14T08:11:08.667Z,7292.00
2017-11-14T08:12:17.014Z,7748.00
2017-11-14T08:13:25.599Z,7596.00
2017-11-14T08:14:34.045Z,6832.00
2017-11-14T08:15:42.642Z,6692.00
2017-11-14T08:16:51.175Z,6652.00
2017-11-14T08:17:59.759Z,7192.00
2017-11-14T08:19:08.325Z,7988.00
2017-11-14T08:20:16.975Z,8228.00
2017-11-14T08:21:25.509Z,8484.00
2017-11-14T08:22:34.162Z,8584.00
2017-11-14T08:23:42.700Z,8340.00
2017-11-14T08:24:51.282Z,7476.00
2017-11-14T08:25:59.845Z,8176.00
2017-11-14T08:27:08.680Z,7404.00
2017-11-14T08:28:17.028Z,7504.00
2017-11-14T08:29:25.535Z,7456.00
2017-11-14T08:30:34.107Z,7384.00
2017-11-14T08:31:42.775Z,7068.00
2017-11-14T08:32:51.288Z,7436.00
2017-11-14T08:33:59.873Z,7092.00
2017-11-14T08:35:08.455Z,6892.00
2017-11-14T08:36:17.103Z,7028.00
2017-11-14T08:37:25.692Z,7256.00
2017-11-14T08:38:34.209Z,7384.00
2017-11-14T08:39:42.817Z,7592.00
2017-11-14T08:40:51.393Z,7992.00
2017-11-14T08:42:00.056Z,7916.00
2017-11-14T08:43:08.568Z,7908.00
2017-11-14T08:44:17.249Z,7824.00
2017-11-14T08:45:25.751Z,7276.00
2017-11-14T08:46:34.541Z,7632.00
2017-11-14T08:47:42.937Z,8100.00
2017-11-14T08:48:51.655Z,7676.00
2017-11-14T08:50:00.187Z,7288.00
2017-11-14T08:51:08.724Z,6732.00
2017-11-14T08:52:17.359Z,6268.00
2017-11-14T08:53:26.014Z,6352.00
2017-11-14T08:54:34.629Z,6448.00
2017-11-14T08:55:43.133Z,8276.00
2017-11-14T08:56:51.925Z,8116.00
2017-11-14T08:58:00.322Z,7580.00
2017-11-14T08:59:08.915Z,7612.00
2017-11-14T09:00:17.525Z,7624.00
2017-11-14T09:01:26.248Z,8104.00
2017-11-14T09:02:34.758Z,7588.00
2017-11-14T09:03:43.390Z,8172.00
2017-11-14T09:04:51.961Z,8080.00
2017-11-14T09:06:00.708Z,8008.00
2017-11-14T09:07:09.233Z,7828.00
2017-11-14T09:08:17.904Z,8016.00
2017-11-14T09:09:26.440Z,7696.00
2017-11-14T09:10:35.051Z,6748.00
2017-11-14T09:11:43.655Z,5664.00
2017-11-14T09:12:52.258Z,5728.00
2017-11-14T09:14:00.883Z,6116.00
2017-11-14T09:15:09.448Z,7228.00
2017-11-14T09:16:18.038Z,6608.00
2017-11-14T09:17:26.726Z,5040.00
2017-11-14T09:18:35.249Z,4476.00
2017-11-14T09:19:43.913Z,4612.00
2017-11-14T09:20:52.460Z,4268.00
2017-11-14T09:22:02.160Z,4592.00
2017-11-14T09:23:09.754Z,5588.00
2017-11-14T09:24:18.266Z,6936.00
2017-11-14T09:25:26.876Z,7240.00
2017-11-14T09:26:35.470Z,7584.00
2017-11-14T09:27:44.108Z,7384.00
2017-11-14T09:28:52.681Z,7692.00
2017-11-14T09:30:01.291Z,10528.00
2017-11-14T09:31:09.884Z,11136.00
2017-11-14T09:32:18.510Z,9448.00
2017-11-14T09:33:27.250Z,10020.00
2017-11-14T09:34:35.825Z,11192.00
2017-11-14T09:35:44.435Z,11148.00
2017-11-14T09:36:53.047Z,10888.00
2017-11-14T09:38:01.639Z,10084.00
2017-11-14T09:39:10.232Z,10972.00
2017-11-14T09:40:18.881Z,11172.00
2017-11-14T09:41:27.582Z,11888.00
2017-11-14T09:42:36.169Z,12068.00
2017-11-14T09:43:44.816Z,12044.00
2017-11-14T09:44:53.487Z,12144.00
2017-11-14T09:46:02.124Z,12992.00
2017-11-14T09:47:10.679Z,12840.00
2017-11-14T09:48:19.340Z,12744.00
2017-11-14T09:49:28.051Z,13108.00
2017-11-14T09:50:36.594Z,13016.00
2017-11-14T09:51:45.269Z,13044.00
2017-11-14T09:52:53.912Z,13016.00
2017-11-14T09:54:02.589Z,12668.00
2017-11-14T09:55:11.301Z,12508.00
2017-11-14T09:56:19.907Z,12436.00
2017-11-14T09:57:28.697Z,11824.00
2017-11-14T09:58:37.497Z,12940.00
2017-11-14T09:59:45.839Z,12616.00
2017-11-14T10:00:54.487Z,13028.00
2017-11-14T10:02:03.157Z,13336.00
2017-11-14T10:03:11.888Z,13468.00
2017-11-14T10:04:20.582Z,15968.00
2017-11-14T10:05:29.188Z,13688.00
2017-11-14T10:06:38.821Z,11688.00
2017-11-14T10:07:46.609Z,11284.00
2017-11-14T10:08:55.196Z,12992.00
2017-11-14T10:10:03.874Z,10924.00
2017-11-14T10:11:12.540Z,9160.00
2017-11-14T10:12:21.253Z,9732.00
2017-11-14T10:13:30.154Z,9320.00
2017-11-14T10:14:38.571Z,10000.00
2017-11-14T10:15:47.359Z,10368.00
2017-11-14T10:16:55.867Z,11740.00
2017-11-14T10:18:04.603Z,12440.00
2017-11-14T10:19:13.496Z,13372.00
2017-11-14T10:20:21.930Z,13824.00
2017-11-14T10:21:31.570Z,11944.00
2017-11-14T10:22:39.344Z,10924.00
2017-11-14T10:23:48.149Z,11620.00
2017-11-14T10:24:56.665Z,9352.00
2017-11-14T10:26:05.275Z,9104.00
2017-11-14T10:27:13.946Z,9392.00
2017-11-14T10:28:22.623Z,10764.00
2017-11-14T10:29:31.492Z,12756.00
2017-11-14T10:30:39.976Z,14388.00
2017-11-14T10:31:48.655Z,13520.00
2017-11-14T10:32:57.340Z,13196.00
2017-11-14T10:34:06.063Z,15520.00
2017-11-14T10:35:14.758Z,15836.00
2017-11-14T10:36:23.382Z,15076.00
2017-11-14T10:37:32.081Z,15400.00
2017-11-14T10:38:40.762Z,15184.00
2017-11-14T10:39:49.489Z,16180.00
2017-11-14T10:40:58.165Z,17664.00
2017-11-14T10:42:06.878Z,19296.00
2017-11-14T10:43:15.577Z,18624.00
2017-11-14T10:44:24.361Z,18432.00
2017-11-14T10:45:33.006Z,18720.00
2017-11-14T10:46:41.773Z,19104.00
2017-11-14T10:47:50.453Z,18304.00
2017-11-14T10:48:59.190Z,17536.00
2017-11-14T10:50:07.936Z,16932.00
2017-11-14T10:51:16.654Z,15720.00
2017-11-14T10:52:25.374Z,13384.00
2017-11-14T10:53:34.143Z,8788.00
2017-11-14T10:54:42.865Z,7120.00
2017-11-14T10:55:51.664Z,6352.00
2017-11-14T10:57:00.349Z,6128.00
2017-11-14T10:58:08.951Z,6108.00
2017-11-14T10:59:17.646Z,5136.00
2017-11-14T11:00:26.367Z,4776.00
2017-11-14T11:01:35.031Z,5000.00
2017-11-14T11:02:43.727Z,5480.00
2017-11-14T11:03:52.435Z,6208.00
2017-11-14T11:05:01.470Z,6748.00
2017-11-14T11:06:09.769Z,5100.00
2017-11-14T11:07:18.470Z,5696.00
2017-11-14T11:08:27.129Z,7044.00
2017-11-14T11:09:35.892Z,9664.00
2017-11-14T11:10:44.514Z,9084.00
2017-11-14T11:11:53.214Z,10744.00
2017-11-14T11:13:01.857Z,13140.00
2017-11-14T11:14:10.553Z,11888.00
2017-11-14T11:15:19.361Z,11016.00
2017-11-14T11:16:27.957Z,10236.00
2017-11-14T11:17:36.667Z,11776.00
2017-11-14T11:18:45.330Z,10776.00
2017-11-14T11:19:54.095Z,10556.00
2017-11-14T11:21:02.759Z,11160.00
2017-11-14T11:22:12.432Z,11544.00
2017-11-14T11:23:20.140Z,11220.00
2017-11-14T11:24:28.930Z,12668.00
2017-11-14T11:25:37.905Z,13960.00
2017-11-14T11:26:47.263Z,15280.00
2017-11-14T11:27:54.986Z,16340.00
2017-11-14T11:29:04.800Z,16272.00
2017-11-14T11:30:12.595Z,17728.00
2017-11-14T11:31:21.162Z,18368.00
2017-11-14T11:32:29.909Z,19552.00
2017-11-14T11:33:38.739Z,19136.00
2017-11-14T11:34:47.382Z,20672.00
2017-11-14T11:35:56.405Z,19072.00
2017-11-14T11:37:04.896Z,16544.00
2017-11-14T11:38:13.673Z,13604.00
2017-11-14T11:39:22.486Z,15840.00
2017-11-14T11:40:31.213Z,17600.00
2017-11-14T11:41:40.009Z,15712.00
2017-11-14T11:42:48.721Z,12768.00
2017-11-14T11:43:57.421Z,12244.00
2017-11-14T11:45:06.322Z,12876.00
2017-11-14T11:46:14.981Z,12664.00
2017-11-14T11:47:23.672Z,9852.00
2017-11-14T11:48:36.090Z,10284.00
2017-11-14T11:49:41.198Z,10972.00
2017-11-14T11:50:50.125Z,10632.00
2017-11-14T11:51:58.639Z,9516.00
2017-11-14T11:53:07.429Z,9248.00
2017-11-14T11:54:16.112Z,9504.00
2017-11-14T11:55:24.856Z,9352.00
2017-11-14T11:56:33.606Z,6580.00
2017-11-14T11:57:42.313Z,6836.00
2017-11-14T11:58:51.041Z,8428.00
2017-11-14T11:59:59.799Z,9076.00
2017-11-14T12:01:08.716Z,8804.00
2017-11-14T12:02:17.320Z,11688.00
2017-11-14T12:03:26.038Z,14728.00
2017-11-14T12:04:34.749Z,15616.00
2017-11-14T12:05:43.460Z,16788.00
2017-11-14T12:06:52.201Z,18144.00
2017-11-14T12:08:00.985Z,15592.00
2017-11-14T12:09:09.671Z,16976.00
2017-11-14T12:10:18.507Z,18880.00
2017-11-14T12:11:27.403Z,24288.00
2017-11-14T12:12:35.944Z,21344.00
2017-11-14T12:13:44.820Z,14964.00
2017-11-14T12:14:53.556Z,33216.00
2017-11-14T12:16:02.267Z,15500.00
2017-11-14T12:17:11.075Z,14280.00
2017-11-14T12:18:19.901Z,20800.00
2017-11-14T12:19:28.623Z,17120.00
2017-11-14T12:20:37.433Z,18656.00
2017-11-14T12:21:46.256Z,22560.00
2017-11-14T12:22:55.024Z,21824.00
2017-11-14T12:24:03.826Z,30048.00
2017-11-14T12:25:12.641Z,31072.00
2017-11-14T12:26:21.488Z,29440.00
2017-11-14T12:27:30.332Z,27136.00
2017-11-14T12:28:39.152Z,27552.00
2017-11-14T12:29:48.032Z,20928.00
2017-11-14T12:30:57.023Z,23296.00
2017-11-14T12:32:05.738Z,32992.00
2017-11-14T12:33:14.586Z,23584.00
2017-11-14T12:34:23.493Z,22272.00
2017-11-14T12:35:32.349Z,27008.00
2017-11-14T12:36:41.323Z,20960.00
2017-11-14T12:37:50.160Z,18560.00
2017-11-14T12:38:59.031Z,14944.00
2017-11-14T12:40:07.921Z,12752.00
2017-11-14T12:41:16.811Z,11860.00
2017-11-14T12:42:25.736Z,9736.00
2017-11-14T12:43:34.568Z,11600.00
2017-11-14T12:44:43.538Z,12572.00
2017-11-14T12:45:52.344Z,14140.00
2017-11-14T12:47:01.646Z,23328.00
2017-11-14T12:48:10.036Z,26304.00
2017-11-14T12:49:18.857Z,19744.00
2017-11-14T15:03:48.226Z,328.00
2017-11-14T15:05:32.249Z,1364.00
2017-11-14T15:06:42.762Z,2956.00
2017-11-14T15:07:51.615Z,2964.00
2017-11-14T15:09:00.943Z,3008.00
2017-11-14T15:10:09.243Z,3004.00
2017-11-14T15:11:18.079Z,2756.00
2017-11-14T15:12:26.780Z,2500.00
2017-11-14T15:13:35.533Z,2332.00
2017-11-14T15:14:44.311Z,2172.00
2017-11-14T15:15:53.043Z,2060.00
2017-11-14T15:17:02.408Z,1984.00
2017-11-14T15:18:10.535Z,1912.00
2017-11-14T15:19:19.246Z,1824.00
2017-11-14T15:20:28.538Z,1728.00
2017-11-14T15:21:36.637Z,1636.00
2017-11-14T15:22:45.374Z,1528.00
2017-11-14T15:23:54.161Z,1404.00
2017-11-14T15:25:02.871Z,1304.00
2017-11-14T15:26:11.449Z,1228.00
2017-11-14T15:27:20.120Z,1156.00
2017-11-14T15:28:28.832Z,1076.00
2017-11-14T15:29:37.540Z,1004.00
2017-11-14T15:30:46.188Z,924.00
2017-11-14T15:31:55.729Z,840.00
2017-11-14T15:33:03.780Z,756.00
2017-11-14T15:34:12.446Z,684.00
2017-11-14T15:35:21.151Z,612.00
2017-11-14T15:36:29.993Z,552.00
2017-11-14T15:37:38.271Z,504.00
2017-11-14T15:38:46.972Z,464.00
2017-11-14T15:39:55.639Z,420.00
2017-11-14T15:41:04.418Z,384.00
2017-11-14T15:42:13.074Z,344.00
2017-11-14T15:43:21.666Z,312.00
2017-11-14T15:44:30.277Z,280.00
2017-11-14T15:45:39.043Z,260.00
2017-11-14T15:46:48.633Z,236.00
2017-11-14T15:47:56.368Z,208.00
2017-11-14T15:49:05.424Z,188.00
2017-11-14T15:50:14.151Z,168.00
2017-11-14T15:51:22.233Z,144.00
2017-11-14T15:52:30.869Z,124.00
2017-11-14T15:53:39.550Z,100.00
2017-11-14T15:54:48.161Z,84.00
2017-11-14T15:55:56.778Z,68.00
2017-11-14T15:57:06.432Z,56.00
2017-11-14T15:58:14.043Z,48.00
2017-11-14T15:59:22.676Z,40.00
2017-11-14T16:00:31.924Z,32.00
2017-11-14T16:01:40.533Z,28.00
2017-11-14T16:02:48.894Z,20.00
2017-11-14T16:03:57.312Z,20.00
2017-11-14T16:05:05.950Z,12.00
2017-11-14T16:06:14.485Z,12.00
2017-11-14T16:07:23.186Z,8.00
2017-11-14T16:08:31.775Z,8.00
2017-11-14T16:09:40.387Z,8.00
2017-11-14T16:10:49.092Z,4.00
2017-11-14T16:11:57.630Z,4.00
2017-11-14T16:13:06.497Z,4.00
2017-11-14T16:14:14.998Z,0.00
2017-11-14T16:15:23.608Z,4.00
2017-11-14T16:16:32.145Z,4.00
2017-11-14T16:17:41.116Z,0.00
2017-11-14T16:18:50.072Z,0.00
2017-11-14T16:19:58.135Z,0.00
2017-11-14T16:21:07.264Z,0.00
2017-11-14T16:22:15.286Z,0.00
2017-11-14T16:23:23.871Z,0.00
2017-11-14T16:24:32.502Z,0.00
2017-11-14T16:25:41.626Z,0.00
2017-11-14T16:26:49.706Z,0.00
2017-11-14T16:27:58.351Z,0.00
2017-11-14T16:29:06.938Z,0.00
2017-11-14T16:30:16.535Z,0.00
2017-11-14T16:31:24.668Z,0.00
2017-11-14T16:32:32.942Z,0.00
2017-11-14T16:33:41.490Z,0.00
2017-11-14T16:34:50.085Z,0.00
2017-11-14T16:35:59.104Z,0.00
2017-11-14T16:37:07.216Z,0.00
2017-11-14T16:38:16.170Z,0.00
2017-11-14T16:39:24.420Z,0.00
2017-11-14T16:40:33.030Z,0.00
2017-11-14T16:41:41.643Z,0.00
2017-11-14T16:42:50.250Z,0.00
2017-11-14T16:43:58.972Z,0.00
2017-11-14T16:45:07.467Z,0.00
2017-11-14T16:46:16.076Z,0.00
2017-11-14T16:47:24.682Z,0.00
2017-11-14T16:48:34.303Z,0.00
2017-11-14T16:49:41.909Z,0.00
2017-11-14T16:50:50.608Z,0.00
2017-11-14T16:51:59.294Z,0.00
2017-11-14T16:53:07.726Z,0.00
2017-11-14T16:54:16.360Z,0.00
2017-11-14T16:55:25.043Z,0.00
2017-11-14T16:56:33.814Z,0.00
2017-11-14T16:57:42.168Z,0.00
2017-11-14T16:58:51.053Z,0.00
2017-11-14T16:59:59.539Z,0.00
2017-11-14T17:01:08.089Z,0.00
2017-11-14T17:02:16.670Z,0.00
2017-11-14T17:03:25.408Z,0.00
2017-11-14T17:04:33.989Z,0.00
2017-11-14T17:05:42.488Z,0.00
2017-11-14T17:06:51.134Z,0.00
2017-11-14T17:07:59.815Z,0.00
2017-11-14T17:09:08.379Z,0.00
2017-11-14T17:10:17.481Z,0.00
2017-11-14T17:11:25.669Z,0.00
2017-11-14T17:12:34.716Z,0.00
2017-11-14T17:13:43.070Z,0.00
2017-11-14T17:14:51.575Z,0.00
2017-11-14T17:16:00.173Z,0.00
2017-11-14T17:17:09.232Z,0.00
2017-11-14T17:18:17.501Z,0.00
2017-11-14T17:19:26.000Z,0.00
2017-11-14T17:20:35.648Z,0.00
2017-11-14T17:21:44.929Z,0.00
2017-11-14T17:22:51.863Z,0.00
2017-11-14T17:24:00.602Z,0.00
2017-11-14T17:25:09.254Z,0.00
2017-11-14T17:27:26.506Z,0.00
2017-11-14T17:28:35.108Z,0.00
2017-11-14T17:29:46.188Z,0.00
2017-11-14T17:30:53.404Z,0.00
2017-11-14T17:32:00.935Z,0.00
2017-11-14T17:33:09.551Z,0.00
2017-11-14T17:34:18.438Z,0.00
2017-11-14T17:35:26.863Z,0.00
2017-11-14T17:36:35.445Z,0.00
2017-11-14T17:37:45.082Z,0.00
2017-11-14T17:38:53.713Z,0.00
2017-11-14T17:40:01.377Z,0.00
2017-11-14T17:41:10.015Z,0.00
2017-11-14T17:42:18.636Z,0.00
2017-11-14T17:43:27.406Z,0.00
2017-11-14T17:44:35.937Z,0.00
2017-11-14T17:45:44.557Z,0.00
2017-11-14T17:46:53.338Z,0.00
2017-11-14T17:48:01.832Z,0.00
2017-11-14T17:49:10.485Z,0.00
2017-11-14T17:50:19.205Z,0.00
2017-11-14T17:51:27.873Z,0.00
2017-11-14T17:52:36.480Z,0.00
2017-11-14T17:53:45.029Z,0.00
2017-11-14T17:54:53.756Z,0.00
2017-11-14T17:56:02.320Z,0.00
2017-11-14T17:57:11.046Z,0.00
2017-11-14T17:58:19.655Z,0.00
2017-11-14T17:59:28.266Z,0.00
2017-11-14T18:00:36.991Z,0.00
2017-11-14T18:01:45.660Z,0.00
2017-11-14T18:02:54.191Z,0.00
2017-11-14T18:04:02.905Z,0.00
2017-11-14T18:05:11.486Z,0.00
2017-11-14T18:06:20.126Z,0.00
2017-11-14T18:07:28.831Z,0.00
2017-11-14T18:08:37.443Z,0.00
2017-11-14T18:09:46.050Z,0.00
2017-11-14T18:10:54.783Z,0.00
2017-11-14T18:12:03.370Z,0.00
2017-11-14T18:13:11.977Z,0.00
2017-11-14T18:14:20.615Z,0.00
2017-11-14T18:15:29.355Z,0.00
2017-11-14T18:16:37.913Z,0.00
2017-11-14T18:17:47.135Z,0.00
2017-11-14T18:18:55.229Z,0.00
2017-11-14T18:20:03.848Z,0.00
2017-11-14T18:21:12.511Z,0.00
2017-11-14T18:22:21.158Z,0.00
2017-11-14T18:23:30.892Z,0.00
2017-11-14T18:24:38.427Z,0.00
2017-11-14T18:25:47.396Z,0.00
2017-11-14T18:26:56.410Z,0.00
2017-11-14T18:28:04.364Z,0.00
2017-11-14T18:29:13.165Z,0.00
2017-11-14T18:30:21.727Z,0.00
2017-11-14T18:31:30.528Z,0.00
2017-11-14T18:32:39.047Z,0.00
2017-11-14T18:33:47.653Z,0.00
2017-11-14T18:34:56.434Z,0.00
2017-11-14T18:36:05.158Z,0.00
2017-11-14T18:37:13.590Z,0.00
2017-11-14T18:38:22.399Z,0.00
2017-11-14T18:39:30.908Z,0.00
2017-11-14T18:40:40.701Z,0.00
2017-11-14T18:41:48.224Z,0.00
2017-11-14T18:42:56.841Z,0.00
2017-11-14T18:44:05.547Z,0.00
2017-11-14T18:45:14.155Z,0.00
2017-11-14T18:46:22.833Z,0.00
2017-11-14T18:47:31.483Z,0.00
2017-11-14T18:48:40.113Z,0.00
2017-11-14T18:49:48.776Z,0.00
2017-11-14T18:50:57.508Z,0.00
2017-11-14T18:52:06.113Z,0.00
2017-11-14T18:53:14.741Z,0.00
2017-11-14T18:54:23.389Z,0.00
2017-11-14T18:55:32.053Z,0.00
2017-11-14T18:56:40.736Z,0.00
2017-11-14T18:57:49.539Z,0.00
2017-11-14T18:58:58.018Z,0.00
2017-11-14T19:00:06.680Z,0.00
2017-11-14T19:01:15.407Z,0.00
2017-11-14T19:02:24.005Z,0.00
2017-11-14T19:03:32.787Z,0.00
2017-11-14T19:04:41.310Z,0.00
2017-11-14T19:05:50.032Z,0.00
2017-11-14T19:06:58.629Z,0.00
2017-11-14T19:08:07.352Z,0.00
2017-11-14T19:09:15.921Z,0.00
2017-11-14T19:10:24.674Z,0.00
2017-11-14T19:11:33.297Z,0.00
2017-11-14T19:12:41.997Z,0.00
2017-11-14T19:13:50.547Z,0.00
2017-11-14T19:14:59.214Z,0.00
2017-11-14T19:16:07.928Z,0.00
2017-11-14T19:17:17.582Z,0.00
2017-11-14T19:18:26.164Z,0.00
2017-11-14T19:19:33.818Z,0.00
2017-11-14T19:20:42.563Z,0.00
2017-11-14T19:21:51.155Z,0.00
2017-11-14T19:22:59.781Z,0.00
2017-11-14T19:24:08.441Z,0.00
2017-11-14T19:25:17.103Z,0.00
2017-11-14T19:26:25.742Z,0.00
2017-11-14T19:27:34.409Z,0.00
2017-11-14T19:28:43.039Z,0.00
2017-11-14T19:29:51.699Z,0.00
2017-11-14T19:31:00.353Z,0.00
2017-11-14T19:32:09.081Z,0.00
2017-11-14T19:33:17.668Z,0.00
2017-11-14T19:34:26.306Z,0.00
2017-11-14T19:35:34.994Z,0.00
2017-11-14T19:36:43.775Z,0.00
2017-11-14T19:37:52.284Z,0.00
2017-11-14T19:39:00.918Z,0.00
2017-11-14T19:40:09.703Z,0.00
2017-11-14T19:41:18.237Z,0.00
2017-11-14T19:42:26.984Z,0.00
2017-11-14T19:43:35.556Z,0.00
2017-11-14T19:44:44.682Z,0.00
2017-11-14T19:45:52.808Z,0.00
2017-11-14T19:47:01.456Z,0.00
2017-11-14T19:48:10.126Z,0.00
2017-11-14T19:49:18.809Z,0.00
2017-11-14T19:50:27.415Z,0.00
2017-11-14T19:51:36.202Z,0.00
2017-11-14T19:52:44.718Z,0.00
2017-11-14T19:53:53.350Z,0.00
2017-11-14T19:55:01.982Z,0.00
2017-11-14T19:56:10.627Z,0.00
2017-11-14T19:57:19.377Z,0.00
2017-11-14T19:58:27.944Z,0.00
2017-11-14T19:59:36.566Z,0.00
2017-11-14T20:00:45.490Z,0.00
2017-11-14T20:01:53.917Z,0.00
2017-11-14T20:03:03.055Z,0.00
2017-11-14T20:04:11.240Z,0.00
2017-11-14T20:05:19.804Z,0.00
2017-11-14T20:06:28.530Z,0.00
2017-11-14T20:07:37.676Z,0.00
2017-11-14T20:08:45.754Z,0.00
2017-11-14T20:09:54.382Z,0.00
2017-11-14T20:11:03.019Z,0.00
2017-11-14T20:12:11.670Z,0.00
2017-11-14T20:13:20.337Z,0.00
2017-11-14T20:14:28.965Z,0.00
2017-11-14T20:15:37.704Z,0.00
2017-11-14T20:16:46.341Z,0.00
2017-11-14T20:17:54.903Z,0.00
2017-11-14T20:19:04.084Z,0.00
2017-11-14T20:20:12.196Z,0.00
2017-11-14T20:21:20.827Z,0.00
2017-11-14T20:22:29.493Z,0.00
2017-11-14T20:23:38.228Z,0.00
2017-11-14T20:24:46.767Z,0.00
2017-11-14T20:25:55.593Z,0.00
2017-11-14T20:27:04.565Z,0.00
2017-11-14T20:28:12.738Z,0.00
2017-11-14T20:29:21.463Z,0.00
2017-11-14T20:30:30.000Z,0.00
2017-11-14T20:31:39.640Z,0.00
2017-11-14T20:32:47.301Z,0.00
2017-11-14T20:33:56.168Z,0.00
2017-11-14T20:35:04.597Z,0.00
2017-11-14T20:36:13.242Z,0.00
2017-11-14T20:37:21.880Z,0.00
2017-11-14T20:38:30.524Z,0.00
2017-11-14T20:39:39.417Z,0.00
2017-11-14T20:40:47.842Z,0.00
2017-11-14T20:41:56.468Z,0.00
2017-11-14T20:43:05.338Z,0.00
2017-11-14T20:44:13.954Z,0.00
2017-11-14T20:45:23.626Z,0.00
2017-11-14T20:46:31.091Z,0.00
2017-11-14T20:47:39.906Z,0.00
2017-11-14T20:48:48.410Z,0.00
2017-11-14T20:49:57.502Z,0.00
2017-11-14T20:51:05.811Z,0.00
2017-11-14T20:52:14.283Z,0.00
2017-11-14T20:53:22.921Z,0.00
2017-11-14T20:54:31.675Z,0.00
2017-11-14T20:55:40.271Z,0.00
2017-11-14T20:56:49.657Z,0.00
2017-11-14T20:57:57.590Z,0.00
2017-11-14T20:59:06.161Z,0.00
2017-11-14T21:00:14.835Z,0.00
2017-11-14T21:01:23.496Z,0.00
2017-11-14T21:02:32.103Z,0.00
2017-11-14T21:03:41.109Z,0.00
2017-11-14T21:04:49.974Z,0.00
2017-11-14T21:05:58.571Z,0.00
2017-11-14T21:07:06.841Z,0.00
2017-11-14T21:08:15.375Z,0.00
2017-11-14T21:09:23.954Z,0.00
2017-11-14T21:10:32.714Z,0.00
2017-11-14T21:11:41.242Z,0.00
2017-11-14T21:12:49.894Z,0.00
2017-11-14T21:13:58.621Z,0.00
2017-11-14T21:15:07.415Z,0.00
2017-11-14T21:16:15.916Z,0.00
2017-11-14T21:17:24.462Z,0.00
2017-11-14T21:18:33.095Z,0.00
2017-11-14T21:19:41.870Z,0.00
2017-11-14T21:20:50.379Z,0.00
2017-11-14T21:21:59.171Z,0.00
2017-11-14T21:23:07.661Z,0.00
2017-11-14T21:24:16.309Z,0.00
2017-11-14T21:25:25.035Z,0.00
2017-11-14T21:26:33.596Z,0.00
2017-11-14T21:27:42.235Z,0.00
2017-11-14T21:28:50.947Z,0.00
2017-11-14T21:29:59.514Z,0.00
2017-11-14T21:31:08.678Z,0.00
2017-11-14T21:32:16.775Z,0.00
2017-11-14T21:33:25.487Z,0.00
2017-11-14T21:34:34.102Z,0.00
2017-11-14T21:35:42.824Z,0.00
2017-11-14T21:36:51.317Z,0.00
2017-11-14T21:37:59.944Z,0.00
2017-11-14T21:39:08.590Z,0.00
2017-11-14T21:40:17.937Z,0.00
2017-11-14T21:41:25.857Z,0.00
2017-11-14T21:42:34.638Z,0.00
2017-11-14T21:43:43.117Z,0.00
2017-11-14T21:44:51.754Z,0.00
2017-11-14T21:46:00.417Z,0.00
2017-11-14T21:47:09.101Z,0.00
2017-11-14T21:48:17.708Z,0.00
2017-11-14T21:49:26.304Z,0.00
2017-11-14T21:50:34.956Z,0.00
2017-11-14T21:51:43.563Z,0.00
2017-11-14T21:52:52.208Z,0.00
2017-11-14T21:54:00.838Z,0.00
2017-11-14T21:55:09.475Z,0.00
2017-11-14T21:56:18.703Z,0.00
2017-11-14T21:57:26.744Z,0.00
2017-11-14T21:58:35.673Z,0.00
2017-11-14T21:59:44.028Z,0.00
2017-11-14T22:00:52.802Z,0.00
2017-11-14T22:02:01.301Z,0.00
2017-11-14T22:03:09.936Z,0.00
2017-11-14T22:04:19.563Z,0.00
2017-11-14T22:05:27.247Z,0.00
2017-11-14T22:06:36.041Z,0.00
2017-11-14T22:07:44.480Z,0.00
2017-11-14T22:08:53.107Z,0.00
2017-11-14T22:10:01.866Z,0.00
2017-11-14T22:11:10.445Z,0.00
2017-11-14T22:12:19.007Z,0.00
2017-11-14T22:13:27.718Z,0.00
2017-11-14T22:14:36.326Z,0.00
2017-11-14T22:15:44.951Z,0.00
2017-11-14T22:16:53.571Z,0.00
2017-11-14T22:18:02.329Z,0.00
2017-11-14T22:19:10.814Z,0.00
2017-11-14T22:20:19.945Z,0.00
2017-11-14T22:21:28.113Z,0.00
2017-11-14T22:22:36.721Z,0.00
2017-11-14T22:23:45.347Z,0.00
2017-11-14T22:24:53.975Z,0.00
2017-11-14T22:26:02.622Z,0.00
2017-11-14T22:27:11.274Z,0.00
2017-11-14T22:28:19.892Z,0.00
2017-11-14T22:29:28.547Z,0.00
2017-11-14T22:30:37.159Z,0.00